Time;durP1;ratioP1;P1;durP2;ratioP2;P2;SDS_P1;SDS_P2;PMS_P1;PMS_P2;Temp;Humidity;BMP_temperature;BMP_pressure;BME280_temperature;BME280_humidity;BME280_pressure;Samples;Min_cycle;Max_cycle;Signal;HPM_P1;HPM_P2
2021/06/16 00:04:14;;;;;;;9.40;8.70;;;;;;;18.91;67.91;100336.72;10435358;28;20054;-71
2021/06/16 00:09:16;;;;;;;8.82;8.23;;;;;;;18.80;68.14;100326.72;10420132;28;20510;-71
2021/06/16 00:14:22;;;;;;;9.02;8.40;;;;;;;18.75;68.69;100331.47;10420278;28;20056;-70
2021/06/16 00:19:24;;;;;;;9.25;8.52;;;;;;;18.94;67.86;100335.66;10422070;28;20056;-71
2021/06/16 00:24:25;;;;;;;10.77;9.88;;;;;;;18.76;68.48;100341.16;10419359;28;20049;-71
2021/06/16 00:29:27;;;;;;;9.30;8.60;;;;;;;18.80;68.59;100331.19;10419724;28;20065;-71
2021/06/16 00:34:28;;;;;;;9.95;9.20;;;;;;;18.47;69.55;100328.75;10417513;28;20041;-71
2021/06/16 00:39:30;;;;;;;9.95;9.25;;;;;;;18.69;69.12;100326.53;10421954;28;20045;-71
2021/06/16 00:44:32;;;;;;;9.93;9.13;;;;;;;18.36;69.66;100324.03;10417465;28;20157;-71
2021/06/16 00:49:33;;;;;;;10.65;9.95;;;;;;;18.57;69.48;100330.75;10418245;28;20053;-72
2021/06/16 00:54:35;;;;;;;11.07;10.18;;;;;;;18.48;69.64;100323.31;10417036;28;20038;-72
2021/06/16 00:59:46;;;;;;;11.05;9.98;;;;;;;18.22;70.42;100322.19;10417556;28;20053;-72
2021/06/16 01:04:51;;;;;;;10.48;9.68;;;;;;;18.15;70.55;100324.38;10419406;28;20048;-71
2021/06/16 01:10:00;;;;;;;12.15;10.93;;;;;;;18.37;70.18;100317.75;10417719;28;20103;-70
2021/06/16 01:15:16;;;;;;;11.93;10.93;;;;;;;18.25;70.39;100322.03;10416350;28;20418;-71
2021/06/16 01:20:40;;;;;;;10.43;9.73;;;;;;;17.89;71.84;100325.03;10417420;28;20095;-71
2021/06/16 01:25:49;;;;;;;13.00;11.68;;;;;;;17.96;71.42;100326.38;10419071;28;20120;-71
2021/06/16 01:30:51;;;;;;;12.10;11.10;;;;;;;18.13;70.70;100326.25;10416876;28;20049;-71
2021/06/16 01:35:59;;;;;;;12.40;11.43;;;;;;;17.95;71.40;100323.81;10416666;28;20041;-72
2021/06/16 01:41:03;;;;;;;12.02;10.88;;;;;;;18.03;71.15;100322.41;10416356;28;20053;-71
2021/06/16 01:46:07;;;;;;;12.70;11.50;;;;;;;17.84;71.81;100329.72;10418923;28;20087;-71
2021/06/16 01:51:10;;;;;;;13.95;12.80;;;;;;;17.51;72.58;100319.19;10414940;28;20132;-71
2021/06/16 01:56:12;;;;;;;13.25;12.15;;;;;;;17.77;72.30;100315.09;10416077;28;20099;-71
2021/06/16 02:01:15;;;;;;;13.98;12.50;;;;;;;17.79;71.94;100321.16;10415190;28;20048;-72
2021/06/16 02:06:19;;;;;;;12.93;11.77;;;;;;;17.61;72.49;100313.25;10417350;28;20041;-71
2021/06/16 02:11:23;;;;;;;14.18;13.02;;;;;;;17.68;72.51;100308.47;10415592;28;20050;-71
2021/06/16 02:16:36;;;;;;;14.27;13.10;;;;;;;17.50;73.18;100314.81;10415550;28;20057;-71
2021/06/16 02:21:38;;;;;;;13.27;12.32;;;;;;;17.48;73.08;100304.25;10415579;28;20557;-71
2021/06/16 02:26:40;;;;;;;13.35;12.50;;;;;;;17.44;73.06;100307.16;10416499;28;20471;-72
2021/06/16 02:31:43;;;;;;;15.35;14.18;;;;;;;17.53;72.75;100302.22;10417830;28;20053;-71
2021/06/16 02:36:47;;;;;;;14.63;13.65;;;;;;;17.48;72.78;100301.59;10415737;28;20168;-72
2021/06/16 02:41:49;;;;;;;14.65;13.48;;;;;;;17.19;73.98;100299.72;10415210;28;20128;-71
2021/06/16 02:46:53;;;;;;;13.73;12.60;;;;;;;16.98;74.42;100304.38;10415247;28;20041;-71
2021/06/16 02:51:56;;;;;;;13.80;12.82;;;;;;;17.24;73.76;100303.81;10416725;28;20041;-72
2021/06/16 02:57:02;;;;;;;17.08;15.93;;;;;;;17.40;73.34;100307.34;10414760;28;20398;-71
2021/06/16 03:02:04;;;;;;;20.05;18.20;;;;;;;17.27;73.75;100301.00;10415138;28;20049;-72
2021/06/16 03:07:07;;;;;;;19.50;17.77;;;;;;;17.18;73.77;100305.94;10446392;22;20040;-69
2021/06/16 03:12:10;;;;;;;21.75;20.05;;;;;;;17.13;74.47;100309.75;10497219;28;20040;-70
2021/06/16 03:17:12;;;;;;;21.80;19.90;;;;;;;17.15;74.44;100304.34;10496022;28;20072;-70
2021/06/16 03:22:14;;;;;;;21.25;19.75;;;;;;;17.19;74.48;100311.19;10496008;28;20044;-70
2021/06/16 03:27:19;;;;;;;21.08;19.10;;;;;;;17.32;74.09;100312.22;10500861;28;20048;-70
2021/06/16 03:32:23;;;;;;;22.15;20.30;;;;;;;17.26;74.56;100311.69;10502955;28;20044;-70
2021/06/16 03:37:25;;;;;;;22.23;20.52;;;;;;;17.36;74.25;100318.25;10502195;28;20497;-70
2021/06/16 03:42:27;;;;;;;22.98;21.10;;;;;;;17.26;74.93;100309.91;10501557;28;20136;-70
2021/06/16 03:47:31;;;;;;;20.15;18.58;;;;;;;17.43;74.54;100306.31;10501289;28;20101;-70
2021/06/16 03:52:33;;;;;;;25.67;21.58;;;;;;;17.28;75.31;100315.16;10502376;28;20048;-70
2021/06/16 03:57:37;;;;;;;21.48;19.88;;;;;;;17.29;75.90;100309.72;10502245;28;20040;-70
2021/06/16 04:02:39;;;;;;;23.15;21.50;;;;;;;17.37;75.58;100309.31;10502010;28;20044;-70
2021/06/16 04:07:40;;;;;;;19.95;18.30;;;;;;;17.59;74.57;100311.63;10501646;28;20127;-70
2021/06/16 04:12:44;;;;;;;20.65;19.05;;;;;;;17.54;74.55;100314.56;10501396;28;20080;-70
2021/06/16 04:17:46;;;;;;;16.88;15.73;;;;;;;17.71;73.87;100315.38;10500149;28;20378;-72
2021/06/16 04:22:47;;;;;;;20.25;18.65;;;;;;;17.86;73.36;100314.56;10500619;28;20536;-72
2021/06/16 04:27:50;;;;;;;18.75;17.35;;;;;;;17.88;73.07;100308.22;10501507;28;20094;-72
2021/06/16 04:32:52;;;;;;;17.95;16.65;;;;;;;17.93;73.24;100307.06;10500872;28;20047;-73
2021/06/16 04:37:54;;;;;;;17.90;16.70;;;;;;;18.09;72.66;100306.09;10500943;28;20044;-72
2021/06/16 04:42:56;;;;;;;17.40;16.10;;;;;;;18.52;70.79;100300.03;10500585;28;20044;-72
2021/06/16 04:47:57;;;;;;;14.35;13.38;;;;;;;18.50;71.44;100305.44;10499062;28;20414;-72
2021/06/16 04:52:59;;;;;;;14.82;13.63;;;;;;;18.75;70.28;100314.63;10501189;28;20040;-72
2021/06/16 04:58:00;;;;;;;16.02;14.75;;;;;;;19.25;68.00;100299.97;10500476;28;20037;-72
2021/06/16 05:03:02;;;;;;;13.82;12.80;;;;;;;19.05;68.89;100298.56;10500411;28;20045;-72
2021/06/16 05:08:04;;;;;;;15.48;14.27;;;;;;;18.75;69.71;100302.19;10499607;28;20036;-72
2021/06/16 05:13:05;;;;;;;16.33;14.80;;;;;;;19.11;69.65;100300.84;10499872;28;20110;-73
2021/06/16 05:18:08;;;;;;;16.17;14.95;;;;;;;19.50;67.84;100300.09;10499806;28;20052;-72
2021/06/16 05:23:10;;;;;;;14.82;13.70;;;;;;;19.46;67.65;100305.75;10500397;28;20055;-71
2021/06/16 05:28:12;;;;;;;14.35;13.15;;;;;;;19.47;68.73;100308.28;10499376;28;20444;-71
2021/06/16 05:33:13;;;;;;;14.25;13.15;;;;;;;19.99;66.82;100312.06;10499228;28;20041;-72
2021/06/16 05:38:15;;;;;;;13.68;12.27;;;;;;;20.25;66.11;100305.00;10499021;28;20044;-71
2021/06/16 05:43:17;;;;;;;13.50;12.50;;;;;;;20.45;65.08;100304.47;10498403;28;20049;-72
2021/06/16 05:48:18;;;;;;;14.30;13.35;;;;;;;20.54;64.62;100298.56;10498025;28;20056;-72
2021/06/16 05:53:20;;;;;;;12.52;11.48;;;;;;;20.76;64.18;100300.59;10497960;28;20087;-72
2021/06/16 05:58:21;;;;;;;13.60;12.50;;;;;;;20.90;62.93;100302.31;10498686;28;20163;-71
2021/06/16 06:03:23;;;;;;;12.90;11.90;;;;;;;20.86;63.60;100304.31;10499051;28;20490;-72
2021/06/16 06:08:25;;;;;;;14.70;13.43;;;;;;;21.32;62.44;100305.56;10498675;28;20037;-70
2021/06/16 06:13:26;;;;;;;13.43;12.40;;;;;;;21.37;62.46;100296.25;10498136;28;20052;-72
2021/06/16 06:18:28;;;;;;;12.65;11.55;;;;;;;21.90;60.51;100298.63;10497006;28;20059;-72
2021/06/16 06:23:29;;;;;;;11.35;10.40;;;;;;;22.19;60.05;100300.97;10498424;28;20037;-73
2021/06/16 06:28:31;;;;;;;12.88;11.75;;;;;;;22.48;58.29;100298.72;10497789;28;20051;-71
2021/06/16 06:33:33;;;;;;;13.15;12.07;;;;;;;22.02;60.06;100297.69;10498351;28;20098;-71
2021/06/16 06:38:35;;;;;;;11.90;10.70;;;;;;;21.95;60.88;100290.25;10496653;28;20049;-70
2021/06/16 06:43:36;;;;;;;12.10;11.20;;;;;;;22.07;59.53;100295.53;10497999;28;20041;-71
2021/06/16 06:48:38;;;;;;;12.38;10.35;;;;;;;22.03;59.82;100306.56;10498396;28;20056;-71
2021/06/16 06:53:39;;;;;;;12.27;11.43;;;;;;;22.11;59.09;100301.50;10499060;28;20045;-71
2021/06/16 06:58:41;;;;;;;11.70;10.70;;;;;;;22.26;60.61;100299.50;10499959;28;20048;-70
2021/06/16 07:03:43;;;;;;;12.75;11.75;;;;;;;23.05;57.76;100287.13;10505249;28;20033;-72
2021/06/16 07:08:45;;;;;;;10.90;10.05;;;;;;;23.11;57.90;100275.91;10505167;28;20413;-71
2021/06/16 07:13:47;;;;;;;11.55;10.73;;;;;;;22.58;58.51;100281.84;10504844;28;20098;-71
2021/06/16 07:18:48;;;;;;;11.55;10.65;;;;;;;22.77;58.15;100280.38;10505208;28;20421;-71
2021/06/16 07:23:51;;;;;;;12.55;11.52;;;;;;;22.62;58.32;100274.38;10503815;28;20041;-71
2021/06/16 07:28:52;;;;;;;11.13;10.32;;;;;;;22.84;58.67;100281.59;10502556;28;20086;-71
2021/06/16 07:33:54;;;;;;;9.88;8.98;;;;;;;23.11;57.19;100274.09;10503476;28;20041;-72
2021/06/16 07:38:56;;;;;;;9.75;9.05;;;;;;;23.19;57.07;100269.91;10504142;28;20486;-71
2021/06/16 07:43:57;;;;;;;9.10;8.43;;;;;;;22.96;57.51;100272.63;10504210;28;20099;-72
2021/06/16 07:48:59;;;;;;;9.52;8.82;;;;;;;22.72;57.93;100274.53;10504029;28;20043;-72
2021/06/16 07:54:00;;;;;;;10.52;9.55;;;;;;;22.62;58.71;100271.72;10504062;28;20136;-71
2021/06/16 07:59:02;;;;;;;9.02;8.32;;;;;;;23.02;58.36;100279.31;10503072;28;20508;-72
2021/06/16 08:04:04;;;;;;;9.38;8.68;;;;;;;23.18;57.94;100271.75;10503456;28;20155;-71
2021/06/16 08:09:06;;;;;;;9.70;8.80;;;;;;;22.83;57.88;100270.03;10501429;28;20049;-71
2021/06/16 08:14:08;;;;;;;9.18;8.48;;;;;;;22.87;57.89;100263.44;10502113;28;20052;-71
2021/06/16 08:19:09;;;;;;;10.50;9.02;;;;;;;23.37;56.79;100265.75;10502204;28;20040;-71
2021/06/16 08:24:11;;;;;;;10.18;7.78;;;;;;;23.46;56.51;100270.34;10502009;28;20045;-72
2021/06/16 08:29:13;;;;;;;8.50;7.55;;;;;;;23.60;56.88;100263.88;10484616;28;20063;-72
2021/06/16 08:34:14;;;;;;;8.75;8.07;;;;;;;24.64;55.00;100269.38;10504316;28;20040;-75
2021/06/16 08:39:16;;;;;;;8.77;7.85;;;;;;;25.14;53.11;100261.41;10520631;28;20038;-71
2021/06/16 08:44:18;;;;;;;7.63;7.03;;;;;;;25.38;52.30;100265.59;10533953;28;20198;-71
2021/06/16 08:49:20;;;;;;;8.93;7.00;;;;;;;25.53;52.23;100257.97;10542729;28;20047;-71
2021/06/16 08:54:21;;;;;;;7.28;6.70;;;;;;;25.83;51.08;100252.50;10542441;28;20055;-72
2021/06/16 08:59:23;;;;;;;7.65;7.15;;;;;;;25.70;51.41;100259.13;10558154;28;20404;-72
2021/06/16 09:04:41;;;;;;;7.47;6.90;;;;;;;25.80;50.80;100260.00;10541566;28;20036;-71
2021/06/16 09:09:43;;;;;;;7.22;6.28;;;;;;;25.59;50.81;100260.97;10542233;28;20044;-69
2021/06/16 09:14:52;;;;;;;8.02;6.72;;;;;;;25.47;52.24;100250.47;10541710;28;20036;-68
2021/06/16 09:19:59;;;;;;;7.28;6.65;;;;;;;25.93;50.90;100255.19;10541517;28;20098;-69
2021/06/16 09:25:06;;;;;;;6.60;6.10;;;;;;;26.00;51.53;100247.41;10540786;28;20093;-69
2021/06/16 09:30:20;;;;;;;6.80;6.13;;;;;;;26.73;50.34;100239.59;10541684;28;20040;-69
2021/06/16 09:35:33;;;;;;;7.10;6.50;;;;;;;27.06;48.08;100246.28;10541352;28;20055;-69
2021/06/16 09:40:39;;;;;;;8.98;7.00;;;;;;;27.25;47.87;100240.81;10540751;28;20452;-69
2021/06/16 09:45:44;;;;;;;6.70;6.07;;;;;;;27.81;47.23;100242.44;10539847;28;20043;-68
2021/06/16 09:50:47;;;;;;;7.27;6.60;;;;;;;28.07;46.78;100236.25;10539479;28;20493;-69
2021/06/16 09:55:49;;;;;;;5.82;5.32;;;;;;;27.82;47.35;100237.88;10541786;28;20050;-69
2021/06/16 10:00:53;;;;;;;8.73;5.75;;;;;;;28.29;45.57;100222.22;10541227;28;20063;-69
2021/06/16 10:06:15;;;;;;;8.02;5.57;;;;;;;28.52;45.06;100224.44;10539779;28;20036;-69
2021/06/16 10:11:23;;;;;;;5.53;5.07;;;;;;;28.37;45.14;100218.75;10526790;28;20072;-69
2021/06/16 10:16:27;;;;;;;5.65;5.18;;;;;;;28.26;45.58;100210.88;10525412;28;20050;-68
2021/06/16 10:21:29;;;;;;;7.78;5.93;;;;;;;28.12;46.59;100213.16;10497914;28;20049;-69
2021/06/16 10:26:32;;;;;;;6.03;5.47;;;;;;;28.80;45.03;100198.03;10498908;28;20044;-69
2021/06/16 10:31:39;;;;;;;6.53;5.28;;;;;;;29.05;44.85;100199.00;10498889;28;20049;-68
2021/06/16 10:37:04;;;;;;;5.95;5.35;;;;;;;29.04;44.01;100191.88;10506378;28;20386;-70
2021/06/16 10:42:06;;;;;;;7.57;5.68;;;;;;;29.14;42.97;100188.03;10505441;28;20044;-70
2021/06/16 10:47:08;;;;;;;6.55;6.05;;;;;;;29.05;44.29;100182.78;10507115;28;20048;-69
2021/06/16 10:52:15;;;;;;;7.38;5.75;;;;;;;29.76;43.34;100170.56;10502371;28;20052;-70
2021/06/16 10:57:17;;;;;;;5.85;4.85;;;;;;;29.98;42.29;100177.16;10504408;28;20488;-69
2021/06/16 11:02:24;;;;;;;5.15;4.65;;;;;;;29.56;42.72;100180.88;10506083;28;20494;-68
2021/06/16 11:07:27;;;;;;;6.47;5.88;;;;;;;29.57;42.10;100171.72;10505894;28;20068;-68
2021/06/16 11:12:36;;;;;;;6.32;4.82;;;;;;;30.50;41.80;100164.00;10505134;28;20106;-69
2021/06/16 11:17:43;;;;;;;5.35;4.95;;;;;;;30.50;40.16;100150.44;10533908;28;20126;-69
2021/06/16 11:22:44;;;;;;;6.35;5.03;;;;;;;30.24;42.26;100150.72;10546354;28;20048;-70
2021/06/16 11:28:09;;;;;;;4.60;4.15;;;;;;;30.38;40.28;100143.72;10546936;28;20470;-69
2021/06/16 11:33:20;;;;;;;4.38;3.97;;;;;;;30.49;41.57;100143.34;10545960;28;20044;-69
2021/06/16 11:38:22;;;;;;;5.07;4.65;;;;;;;30.25;40.87;100136.13;10545717;28;20447;-70
2021/06/16 11:43:37;;;;;;;5.07;4.50;;;;;;;30.35;40.10;100127.81;10544904;28;20048;-69
2021/06/16 11:48:40;;;;;;;5.22;4.38;;;;;;;30.38;40.79;100127.47;10544457;28;20040;-69
2021/06/16 11:53:42;;;;;;;4.88;4.45;;;;;;;30.46;39.62;100130.16;10544150;28;20044;-68
2021/06/16 11:58:44;;;;;;;4.95;4.55;;;;;;;30.17;39.56;100113.63;10544898;28;20373;-69
2021/06/16 12:03:58;;;;;;;4.78;4.20;;;;;;;31.13;38.65;100121.53;10543955;28;20040;-70
2021/06/16 12:09:03;;;;;;;4.70;4.30;;;;;;;31.11;38.60;100107.28;10543917;28;20032;-69
2021/06/16 12:14:11;;;;;;;4.18;3.88;;;;;;;31.02;38.71;100094.78;10543886;28;20066;-68
2021/06/16 12:19:17;;;;;;;5.03;4.45;;;;;;;31.25;38.01;100098.34;10542469;28;20040;-69
2021/06/16 12:24:25;;;;;;;3.97;3.78;;;;;;;31.53;38.66;100086.97;10545108;28;20475;-69
2021/06/16 12:29:29;;;;;;;4.30;3.90;;;;;;;31.62;38.40;100094.03;10544075;28;20060;-69
2021/06/16 12:35:17;;;;;;;4.18;3.75;;;;;;;31.75;38.45;100096.13;10542370;28;20181;-69
2021/06/16 12:40:03;;;;;;;;;;;;;;;31.84;37.91;100081.44;10534225;28;20074;-69
2021/06/16 12:45:36;;;;;;;4.15;3.63;;;;;;;31.56;37.97;100068.41;10502281;28;19924;-69
2021/06/16 12:50:38;;;;;;;5.07;4.15;;;;;;;31.55;37.58;100066.72;10502080;28;20091;-69
2021/06/16 12:55:48;;;;;;;4.32;3.72;;;;;;;32.04;38.27;100065.41;10464684;28;20091;-69
2021/06/16 13:00:58;;;;;;;5.45;4.57;;;;;;;31.39;38.03;100065.00;10458191;28;20044;-68
2021/06/16 13:06:02;;;;;;;7.50;3.50;;;;;;;31.84;36.83;100067.84;10456062;28;20117;-68
2021/06/16 13:11:20;;;;;;;5.57;4.53;;;;;;;31.67;36.18;100058.97;10458780;28;20044;-68
2021/06/16 13:16:23;;;;;;;3.97;3.67;;;;;;;31.37;37.60;100053.47;10458541;28;20418;-70
2021/06/16 13:21:25;;;;;;;4.40;4.07;;;;;;;31.95;37.16;100047.50;10458084;28;20049;-69
2021/06/16 13:26:27;;;;;;;5.47;4.35;;;;;;;31.72;35.97;100044.84;10458201;28;20045;-70
2021/06/16 13:31:29;;;;;;;3.97;3.67;;;;;;;31.12;37.78;100038.38;10458012;28;20159;-70
2021/06/16 13:36:31;;;;;;;4.68;4.28;;;;;;;30.90;37.46;100038.22;10457851;28;20068;-69
2021/06/16 13:41:33;;;;;;;3.88;3.58;;;;;;;30.81;37.22;100035.69;10475092;28;20050;-71
2021/06/16 13:46:37;;;;;;;15.50;4.90;;;;;;;30.94;37.68;100026.97;10497492;28;20494;-69
2021/06/16 13:51:38;;;;;;;6.28;4.22;;;;;;;30.85;36.67;100020.75;10499385;28;20549;-69
2021/06/16 13:56:44;;;;;;;4.13;3.75;;;;;;;30.64;37.58;100014.09;10498920;28;20032;-69
2021/06/16 14:01:45;;;;;;;4.65;4.25;;;;;;;30.35;38.23;100006.59;10497948;28;20059;-69
2021/06/16 14:06:47;;;;;;;4.50;3.88;;;;;;;30.80;38.97;100013.16;10498098;28;20049;-70
2021/06/16 14:11:49;;;;;;;3.65;3.35;;;;;;;31.21;38.31;100006.56;10498808;28;20048;-69
2021/06/16 14:16:50;;;;;;;4.00;3.60;;;;;;;31.17;36.01;100003.38;10497601;28;20047;-68
2021/06/16 14:21:53;;;;;;;3.90;3.53;;;;;;;30.81;36.99;99997.72;10499214;28;20501;-68
2021/06/16 14:26:55;;;;;;;3.65;3.03;;;;;;;31.01;36.21;99992.66;10497538;28;20040;-70
2021/06/16 14:31:56;;;;;;;2.75;2.55;;;;;;;31.17;35.89;99992.53;10497684;28;20127;-68
2021/06/16 14:36:58;;;;;;;4.32;2.55;;;;;;;31.01;34.53;99990.78;10497180;28;20096;-69
2021/06/16 14:42:00;;;;;;;6.18;2.67;;;;;;;31.05;35.92;99996.69;10497039;28;20041;-69
2021/06/16 14:47:02;;;;;;;3.10;2.58;;;;;;;31.34;35.17;99987.81;10497240;28;20115;-69
2021/06/16 14:52:04;;;;;;;4.88;4.00;;;;;;;31.49;36.27;99985.13;10495246;28;20040;-69
2021/06/16 14:57:06;;;;;;;5.05;3.53;;;;;;;31.42;36.28;99974.16;10495223;28;20047;-69
2021/06/16 15:02:08;;;;;;;4.45;2.97;;;;;;;31.67;35.42;99969.31;10496630;28;20041;-69
2021/06/16 15:07:15;;;;;;;3.90;3.20;;;;;;;31.86;36.01;99962.47;10504098;23;20049;-72
2021/06/16 15:12:18;;;;;;;4.43;2.95;;;;;;;31.81;34.47;99962.19;10457985;28;20044;-72
2021/06/16 15:17:21;;;;;;;5.32;2.97;;;;;;;31.01;36.02;99963.63;10423777;28;20115;-71
2021/06/16 15:22:23;;;;;;;7.13;2.78;;;;;;;31.46;35.31;99955.59;10444806;28;20055;-71
2021/06/16 15:27:25;;;;;;;3.38;2.67;;;;;;;31.93;33.56;99958.00;10464609;28;20045;-72
2021/06/16 15:32:27;;;;;;;2.25;2.00;;;;;;;31.96;33.42;99949.44;10464545;28;20059;-72
2021/06/16 15:37:29;;;;;;;3.33;2.63;;;;;;;32.54;32.61;99961.28;10462190;28;20678;-72
2021/06/16 15:42:31;;;;;;;2.83;2.58;;;;;;;32.55;33.38;99949.34;10462126;28;20417;-72
2021/06/16 15:47:35;;;;;;;3.35;2.47;;;;;;;32.49;32.62;99949.25;10463573;28;20041;-72
2021/06/16 15:52:37;;;;;;;3.30;2.40;;;;;;;32.06;32.83;99938.28;10462885;28;20048;-72
2021/06/16 15:57:53;;;;;;;2.67;2.47;;;;;;;32.30;33.46;99928.94;10463933;28;20049;-71
2021/06/16 16:02:55;;;;;;;3.28;2.50;;;;;;;31.76;33.95;99932.84;10460753;28;20045;-72
2021/06/16 16:07:57;;;;;;;3.38;2.10;;;;;;;31.78;33.27;99932.66;10463345;28;20552;-72
2021/06/16 16:12:58;;;;;;;3.03;2.72;;;;;;;31.42;34.47;99929.84;10462485;28;20044;-72
2021/06/16 16:18:00;;;;;;;3.20;2.75;;;;;;;31.44;35.24;99928.63;10462041;28;20045;-72
2021/06/16 16:23:03;;;;;;;3.63;1.95;;;;;;;31.36;33.74;99926.00;10462328;28;20047;-73
2021/06/16 16:28:08;;;;;;;2.50;2.30;;;;;;;31.24;34.81;99920.16;10463019;28;20132;-73
2021/06/16 16:33:09;;;;;;;2.50;2.30;;;;;;;30.66;34.79;99930.63;10462833;28;20051;-72
2021/06/16 16:38:12;;;;;;;2.97;2.50;;;;;;;30.68;34.50;99925.03;10462509;28;20044;-72
2021/06/16 16:43:17;;;;;;;3.03;2.38;;;;;;;30.58;35.23;99921.72;10462512;28;20055;-73
2021/06/16 16:48:18;;;;;;;;;;;;;;;30.50;35.69;99922.59;10475899;28;20041;-72
2021/06/16 16:53:20;;;;;;;4.05;2.75;;;;;;;30.20;36.16;99928.94;10480895;28;20254;-70
2021/06/16 16:58:22;;;;;;;2.58;2.22;;;;;;;29.95;36.07;99925.47;10441066;28;20044;-72
2021/06/16 17:03:23;;;;;;;3.22;2.92;;;;;;;29.69;36.79;99918.44;10491868;28;20052;-71
2021/06/16 17:08:25;;;;;;;3.08;2.78;;;;;;;29.39;36.84;99918.16;10484572;28;20079;-71
2021/06/16 17:13:27;;;;;;;2.75;2.55;;;;;;;29.01;37.06;99916.22;10500868;28;20493;-71
2021/06/16 17:18:28;;;;;;;2.55;2.22;;;;;;;28.78;37.42;99916.88;10484851;28;20059;-71
2021/06/16 17:23:30;;;;;;;3.05;2.75;;;;;;;28.82;37.94;99918.22;10461354;28;20045;-71
2021/06/16 17:28:33;;;;;;;2.60;2.28;;;;;;;28.59;37.95;99923.44;10466424;28;20040;-73
2021/06/16 17:33:36;;;;;;;2.90;2.70;;;;;;;28.37;38.66;99924.06;10467932;28;20053;-71
2021/06/16 17:38:38;;;;;;;3.80;2.70;;;;;;;28.55;38.49;99926.63;10466824;28;20036;-71
2021/06/16 17:43:40;;;;;;;4.38;2.88;;;;;;;28.56;39.16;99931.06;10468801;28;20045;-73
2021/06/16 17:48:42;;;;;;;2.65;2.45;;;;;;;28.26;40.55;99932.47;10467125;28;20490;-74
2021/06/16 17:53:44;;;;;;;4.38;3.53;;;;;;;28.28;40.49;99928.59;10468204;28;20037;-75
2021/06/16 17:58:46;;;;;;;4.30;3.90;;;;;;;28.19;40.78;99934.13;10462618;28;20106;-73
2021/06/16 18:03:48;;;;;;;3.58;3.28;;;;;;;27.98;41.50;99937.28;10460373;28;20120;-73
2021/06/16 18:08:50;;;;;;;3.95;3.65;;;;;;;27.77;42.67;99933.16;10460338;28;20083;-73
2021/06/16 18:13:51;;;;;;;3.72;3.30;;;;;;;27.65;42.82;99934.41;10459254;28;20091;-73
2021/06/16 18:18:53;;;;;;;4.13;3.67;;;;;;;27.65;42.66;99937.94;10460381;28;20049;-73
2021/06/16 18:23:55;;;;;;;3.72;3.42;;;;;;;27.50;42.85;99942.25;10459301;28;20064;-73
2021/06/16 18:28:57;;;;;;;4.03;3.67;;;;;;;27.32;43.74;99949.56;10457943;28;20048;-73
2021/06/16 18:33:58;;;;;;;4.18;3.85;;;;;;;27.25;44.26;99949.34;10458024;28;20056;-72
2021/06/16 18:39:00;;;;;;;4.18;3.67;;;;;;;27.23;44.45;99950.53;10459589;28;20049;-74
2021/06/16 18:44:02;;;;;;;4.40;3.97;;;;;;;27.11;45.00;99953.47;10460648;28;20055;-73
2021/06/16 18:49:05;;;;;;;4.80;3.80;;;;;;;26.98;45.71;99949.44;10460540;28;20048;-73
2021/06/16 18:54:06;;;;;;;5.55;4.20;;;;;;;27.04;45.89;99946.13;10464995;28;20041;-74
2021/06/16 18:59:08;;;;;;;4.53;4.13;;;;;;;26.80;46.32;99952.16;10469422;28;20037;-73
2021/06/16 19:04:14;;;;;;;5.03;4.63;;;;;;;26.63;46.99;99960.09;10468186;28;20045;-74
2021/06/16 19:09:15;;;;;;;;;;;;;;;26.57;47.62;99959.88;10467728;28;20413;-72
2021/06/16 19:14:19;;;;;;;5.38;4.90;;;;;;;26.50;48.02;99965.03;10467252;28;20373;-73
2021/06/16 19:19:20;;;;;;;6.10;4.70;;;;;;;26.32;48.76;99964.97;10468793;28;20429;-74
2021/06/16 19:24:23;;;;;;;5.25;4.85;;;;;;;26.28;48.55;99970.81;10449824;28;20060;-73
2021/06/16 19:29:24;;;;;;;5.43;5.03;;;;;;;26.17;48.96;99969.19;10484052;28;20029;-73
2021/06/16 19:34:26;;;;;;;4.80;4.50;;;;;;;25.97;49.48;99978.34;10471739;28;20105;-73
2021/06/16 19:39:28;;;;;;;5.53;5.03;;;;;;;25.85;49.59;99980.38;10509463;28;20059;-74
2021/06/16 19:44:30;;;;;;;5.32;4.93;;;;;;;25.70;50.42;99982.69;10493360;28;20045;-74
2021/06/16 19:49:35;;;;;;;5.15;4.75;;;;;;;25.69;50.67;99990.91;10468093;28;20040;-73
2021/06/16 19:54:37;;;;;;;8.80;5.20;;;;;;;25.73;50.07;99993.16;10469135;28;20049;-73
2021/06/16 19:59:38;;;;;;;7.25;4.68;;;;;;;25.70;50.17;99988.06;10468441;28;20037;-74
2021/06/16 20:04:40;;;;;;;5.75;5.35;;;;;;;25.41;50.81;99994.38;10468914;28;20036;-74
2021/06/16 20:09:42;;;;;;;7.07;5.40;;;;;;;25.37;50.85;99997.50;10467967;28;20513;-73
2021/06/16 20:14:43;;;;;;;5.05;4.65;;;;;;;25.13;51.93;100001.50;10465707;28;20514;-72
2021/06/16 20:19:45;;;;;;;5.55;5.18;;;;;;;24.95;52.36;99997.78;10467731;28;20124;-74
2021/06/16 20:24:47;;;;;;;5.50;5.10;;;;;;;24.77;52.74;99999.50;10469342;28;20056;-73
2021/06/16 20:29:48;;;;;;;6.07;5.60;;;;;;;24.62;52.96;100002.59;10467221;28;20112;-73
2021/06/16 20:34:50;;;;;;;6.07;5.55;;;;;;;24.54;53.51;100012.34;10450781;28;20148;-75
2021/06/16 20:39:52;;;;;;;5.97;5.40;;;;;;;24.57;53.83;100015.59;10467745;28;20098;-73
2021/06/16 20:44:54;;;;;;;6.03;5.63;;;;;;;24.35;54.21;100011.28;10466072;28;20056;-73
2021/06/16 20:49:55;;;;;;;6.70;6.18;;;;;;;24.13;54.37;100017.72;10465788;28;20135;-74
2021/06/16 20:54:57;;;;;;;6.60;6.03;;;;;;;24.00;54.58;100027.84;10466116;28;20075;-73
2021/06/16 20:59:59;;;;;;;6.28;5.78;;;;;;;23.83;55.71;100025.78;10466305;28;20044;-72
2021/06/16 21:05:01;;;;;;;6.05;5.55;;;;;;;23.84;55.13;100025.63;10463656;28;20061;-73
2021/06/16 21:10:04;;;;;;;6.40;5.90;;;;;;;23.69;55.39;100026.13;10474251;23;20049;-70
2021/06/16 21:15:06;;;;;;;5.82;5.43;;;;;;;23.58;55.96;100030.53;10459177;28;20159;-69
2021/06/16 21:20:09;;;;;;;6.63;6.00;;;;;;;23.47;56.23;100033.31;10457132;28;20450;-69
2021/06/16 21:25:12;;;;;;;5.50;5.00;;;;;;;23.66;55.42;100029.91;10457736;28;20051;-68
2021/06/16 21:30:15;;;;;;;6.35;5.82;;;;;;;23.51;55.95;100029.38;10457501;28;20140;-67
2021/06/16 21:35:17;;;;;;;5.80;5.30;;;;;;;23.49;55.71;100034.00;10458158;28;20495;-70
2021/06/16 21:40:19;;;;;;;5.50;5.10;;;;;;;23.50;56.01;100029.50;10457248;28;20589;-68
2021/06/16 21:45:20;;;;;;;6.30;5.70;;;;;;;23.29;56.49;100025.00;10457597;28;20041;-69
2021/06/16 21:50:23;;;;;;;5.57;5.07;;;;;;;22.96;56.72;100026.00;10456719;28;20123;-69
2021/06/16 21:55:25;;;;;;;5.07;4.68;;;;;;;22.86;55.72;100025.03;10457157;28;20053;-67
2021/06/16 22:00:32;;;;;;;5.57;5.13;;;;;;;22.70;56.30;100032.63;10457255;28;20098;-68
2021/06/16 22:05:35;;;;;;;5.20;4.72;;;;;;;22.76;56.64;100034.81;10441309;28;20386;-69
2021/06/16 22:10:37;;;;;;;4.40;4.05;;;;;;;22.62;55.89;100034.13;10456575;28;20064;-68
2021/06/16 22:15:38;;;;;;;3.80;3.50;;;;;;;22.65;54.36;100033.84;10456237;28;20041;-68
2021/06/16 22:20:42;;;;;;;4.00;3.45;;;;;;;22.97;53.29;100033.06;10456920;28;20083;-69
2021/06/16 22:25:43;;;;;;;4.13;3.40;;;;;;;22.55;54.50;100035.59;10455115;28;20067;-69
2021/06/16 22:30:45;;;;;;;4.50;4.20;;;;;;;22.48;55.59;100031.72;10460965;28;20083;-68
2021/06/16 22:35:47;;;;;;;4.50;4.10;;;;;;;22.10;56.54;100032.94;10464664;28;20147;-68
2021/06/16 22:40:50;;;;;;;4.72;4.43;;;;;;;22.38;56.80;100038.78;10463945;28;20406;-68
2021/06/16 22:45:51;;;;;;;5.22;4.72;;;;;;;22.26;57.26;100037.94;10464598;28;20494;-68
2021/06/16 22:50:53;;;;;;;5.32;4.93;;;;;;;22.11;57.17;100044.50;10464268;28;20044;-69
2021/06/16 22:55:55;;;;;;;4.85;4.55;;;;;;;22.02;58.44;100042.56;10464435;28;20044;-69
2021/06/16 23:00:57;;;;;;;4.72;4.22;;;;;;;21.82;56.98;100046.78;10464346;28;20052;-69
2021/06/16 23:05:59;;;;;;;4.38;4.07;;;;;;;22.03;56.72;100044.25;10463879;28;20053;-69
2021/06/16 23:11:00;;;;;;;4.30;3.90;;;;;;;21.65;57.80;100046.31;10463495;28;20091;-68